Time;durP1;ratioP1;P1;durP2;ratioP2;P2;SDS_P1;SDS_P2;PMS_P1;PMS_P2;Temp;Humidity;BMP_temperature;BMP_pressure;BME280_temperature;BME280_humidity;BME280_pressure;Samples;Min_cycle;Max_cycle;Signal;HPM_P1;HPM_P2
2022/05/01 00:02:04;;;;;;;0.70;0.70;;;2.40;99.90;;;;;;5040671;28;20045;-76
2022/05/01 00:04:30;;;;;;;0.80;0.80;;;2.50;99.90;;;;;;5053043;28;20436;-74
2022/05/01 00:06:55;;;;;;;0.73;0.73;;;2.40;99.90;;;;;;5033652;28;20037;-71
2022/05/01 00:09:21;;;;;;;0.55;0.55;;;2.40;99.90;;;;;;5048888;28;20045;-74
2022/05/01 00:11:47;;;;;;;0.68;0.68;;;3.50;99.90;;;;;;5033708;28;20048;-74
2022/05/01 00:14:12;;;;;;;0.70;0.70;;;2.20;99.90;;;;;;5051949;28;20051;-74
2022/05/01 00:16:38;;;;;;;0.80;0.80;;;2.20;99.90;;;;;;5051593;28;20045;-73
2022/05/01 00:19:04;;;;;;;0.80;0.80;;;2.20;99.90;;;;;;5048946;28;20056;-73
2022/05/01 00:21:30;;;;;;;0.80;0.80;;;2.20;99.90;;;;;;5050443;28;20429;-75
2022/05/01 00:23:55;;;;;;;0.77;0.77;;;2.10;99.90;;;;;;5048846;28;20336;-73
2022/05/01 00:26:21;;;;;;;0.73;0.73;;;2.00;99.90;;;;;;5050647;28;20128;-73
2022/05/01 00:28:47;;;;;;;0.80;0.80;;;2.10;99.90;;;;;;5044588;28;20077;-71
2022/05/01 00:31:16;;;;;;;0.63;0.63;;;2.10;99.90;;;;;;5051906;28;20041;-75
2022/05/01 00:36:26;;;;;;;0.68;0.68;;;2.30;99.90;;;;;;5052383;28;20053;-75
2022/05/01 00:38:55;;;;;;;0.70;0.70;;;2.10;99.90;;;;;;5045690;28;20038;-73
2022/05/01 00:41:21;;;;;;;0.60;0.60;;;2.00;99.90;;;;;;5044209;28;20041;-75
2022/05/01 00:44:06;;;;;;;0.80;0.80;;;2.00;99.90;;;;;;5050476;28;20047;-73
2022/05/01 00:46:41;;;;;;;0.80;0.80;;;2.00;99.90;;;;;;5052132;28;20506;-73
2022/05/01 00:49:14;;;;;;;0.80;0.80;;;1.90;99.90;;;;;;5050369;28;20037;-71
2022/05/01 00:51:52;;;;;;;0.60;0.60;;;1.90;99.90;;;;;;5049564;28;20041;-75
2022/05/01 00:54:23;;;;;;;0.70;0.70;;;1.90;99.90;;;;;;5043055;28;20053;-73
2022/05/01 00:56:50;;;;;;;0.63;0.63;;;1.90;99.90;;;;;;5032731;28;20095;-73
2022/05/01 00:59:17;;;;;;;0.70;0.70;;;1.90;99.90;;;;;;5055594;28;20128;-73
2022/05/01 01:01:44;;;;;;;0.70;0.70;;;1.90;99.90;;;;;;5051720;28;20383;-72
2022/05/01 01:04:11;;;;;;;0.70;0.70;;;1.80;99.90;;;;;;5051948;28;20466;-73
2022/05/01 01:06:37;;;;;;;0.80;0.80;;;1.80;99.90;;;;;;5050915;28;20049;-74
2022/05/01 01:09:04;;;;;;;0.70;0.70;;;1.70;99.90;;;;;;5050859;28;20060;-73
2022/05/01 01:11:30;;;;;;;0.80;0.80;;;1.80;99.90;;;;;;5050713;28;20076;-75
2022/05/01 01:13:58;;;;;;;0.70;0.70;;;1.90;99.90;;;;;;5048766;28;20095;-74
2022/05/01 01:16:24;;;;;;;0.63;0.63;;;1.80;99.90;;;;;;5051662;28;20083;-74
2022/05/01 01:18:50;;;;;;;0.80;0.80;;;1.70;99.90;;;;;;5050836;28;20455;-73
2022/05/01 01:21:16;;;;;;;0.60;0.60;;;1.70;99.90;;;;;;5052094;28;20033;-73
2022/05/01 01:23:42;;;;;;;0.80;0.80;;;1.60;99.90;;;;;;5031881;28;20038;-73
2022/05/01 01:26:11;;;;;;;0.70;0.70;;;1.60;99.90;;;;;;5050019;28;20056;-74
2022/05/01 01:28:40;;;;;;;0.77;0.77;;;1.50;99.90;;;;;;5050118;28;20056;-75
2022/05/01 01:33:56;;;;;;;0.70;0.70;;;1.50;99.90;;;;;;5039120;28;20033;-71
2022/05/01 01:36:24;;;;;;;0.70;0.70;;;1.50;99.90;;;;;;5051386;28;20467;-75
2022/05/01 01:38:50;;;;;;;0.80;0.80;;;1.50;99.90;;;;;;5049612;28;20049;-75
2022/05/01 01:41:21;;;;;;;0.70;0.70;;;1.50;99.90;;;;;;5050484;28;20367;-75
2022/05/01 01:43:49;;;;;;;0.73;0.73;;;1.50;99.90;;;;;;5047545;28;20076;-73
2022/05/01 01:46:15;;;;;;;0.77;0.77;;;1.50;99.90;;;;;;5047936;28;20074;-75
2022/05/01 01:48:44;;;;;;;0.88;0.88;;;1.50;99.90;;;;;;5034057;28;20308;-74
2022/05/01 01:51:09;;;;;;;0.70;0.70;;;1.60;99.90;;;;;;5051180;28;20033;-72
2022/05/01 01:53:36;;;;;;;0.70;0.70;;;1.60;99.90;;;;;;5032540;28;20223;-73
2022/05/01 01:56:03;;;;;;;0.50;0.50;;;1.50;99.90;;;;;;5051440;28;20045;-74
2022/05/01 01:58:30;;;;;;;0.70;0.70;;;1.60;99.90;;;;;;5049439;28;20152;-74
2022/05/01 02:00:56;;;;;;;0.88;0.88;;;1.60;99.90;;;;;;5048845;28;20041;-72
2022/05/01 02:03:22;;;;;;;0.88;0.88;;;1.60;99.90;;;;;;5018619;28;20045;-72
2022/05/01 02:05:48;;;;;;;0.70;0.70;;;1.60;99.90;;;;;;5026805;28;20040;-75
2022/05/01 02:08:15;;;;;;;0.80;0.80;;;1.50;99.90;;;;;;5049820;28;20382;-73
2022/05/01 02:10:40;;;;;;;0.60;0.60;;;1.50;99.90;;;;;;5044793;28;20076;-75
2022/05/01 02:13:07;;;;;;;0.80;0.80;;;1.40;99.90;;;;;;5049473;28;20560;-73
2022/05/01 02:15:33;;;;;;;0.70;0.70;;;1.30;99.90;;;;;;5050172;28;20051;-73
2022/05/01 02:18:01;;;;;;;0.80;0.80;;;1.30;99.90;;;;;;5051424;28;20084;-75
2022/05/01 02:20:27;;;;;;;0.80;0.80;;;1.50;99.90;;;;;;5049698;28;20036;-72
2022/05/01 02:22:54;;;;;;;0.82;0.82;;;1.40;99.90;;;;;;5049890;28;20037;-73
2022/05/01 02:25:21;;;;;;;;;;;1.40;99.90;;;;;;5047262;28;20045;-73
2022/05/01 02:27:47;;;;;;;;;;;1.40;99.90;;;;;;5055825;28;19955;-75
2022/05/01 02:30:13;;;;;;;0.70;0.70;;;1.40;99.90;;;;;;5054144;28;19978;-72
2022/05/01 02:32:40;;;;;;;0.75;0.75;;;1.30;99.90;;;;;;5050658;28;20398;-72
2022/05/01 02:35:07;;;;;;;0.80;0.80;;;1.30;99.90;;;;;;5048165;28;20048;-74
2022/05/01 02:37:33;;;;;;;0.93;0.93;;;1.30;99.90;;;;;;5050305;28;20437;-74
2022/05/01 02:39:59;;;;;;;0.70;0.70;;;1.20;99.90;;;;;;5030233;28;20037;-76
2022/05/01 02:42:24;;;;;;;0.80;0.80;;;1.20;99.90;;;;;;5047841;28;20049;-72
2022/05/01 02:44:50;;;;;;;0.93;0.93;;;1.10;99.90;;;;;;5047938;28;20512;-74
2022/05/01 02:47:16;;;;;;;0.93;0.93;;;1.20;99.90;;;;;;5048259;28;20037;-72
2022/05/01 02:49:42;;;;;;;1.00;1.00;;;1.00;99.90;;;;;;5049654;28;20040;-75
2022/05/01 02:52:09;;;;;;;0.77;0.77;;;0.90;99.90;;;;;;5049511;28;20056;-74
2022/05/01 02:54:36;;;;;;;0.80;0.80;;;0.90;99.90;;;;;;5032043;28;20445;-73
2022/05/01 02:57:03;;;;;;;0.85;0.85;;;0.80;99.90;;;;;;5043899;28;20096;-72
2022/05/01 02:59:29;;;;;;;0.80;0.80;;;0.80;99.90;;;;;;5052274;28;20029;-72
2022/05/01 03:01:55;;;;;;;0.90;0.90;;;0.70;99.90;;;;;;5033129;28;20401;-76
2022/05/01 03:04:21;;;;;;;0.90;0.90;;;0.70;99.90;;;;;;5049300;28;20466;-75
2022/05/01 03:06:47;;;;;;;;;;;0.60;99.90;;;;;;5049829;28;20446;-74
2022/05/01 03:09:13;;;;;;;0.82;0.82;;;0.60;99.90;;;;;;5049528;28;19917;-73
2022/05/01 03:11:39;;;;;;;0.70;0.70;;;0.50;99.90;;;;;;5047803;28;20044;-71
2022/05/01 03:14:04;;;;;;;1.00;1.00;;;0.50;99.90;;;;;;5047834;28;20037;-76
2022/05/01 03:16:30;;;;;;;0.75;0.75;;;0.50;99.90;;;;;;5049625;28;20037;-72
2022/05/01 03:24:26;;;;;;;0.80;0.80;;;0.40;99.90;;;;;;5044700;28;20421;-73
2022/05/01 03:26:52;;;;;;;0.80;0.80;;;0.30;99.90;;;;;;5021026;28;20037;-74
2022/05/01 03:29:18;;;;;;;0.80;0.80;;;0.40;99.90;;;;;;5049268;28;20052;-71
2022/05/01 03:31:46;;;;;;;;;;;0.40;99.90;;;;;;5049790;28;20043;-72
2022/05/01 03:34:13;;;;;;;0.90;0.90;;;0.30;99.90;;;;;;5047012;28;19916;-74
2022/05/01 03:36:39;;;;;;;0.98;0.98;;;0.20;99.90;;;;;;5045154;28;20124;-71
2022/05/01 03:39:05;;;;;;;0.82;0.82;;;0.20;99.90;;;;;;5025280;28;20824;-75
2022/05/01 03:41:31;;;;;;;0.95;0.95;;;0.20;99.90;;;;;;5039812;28;20476;-74
2022/05/01 03:43:57;;;;;;;0.80;0.80;;;0.20;99.90;;;;;;5055849;28;20095;-74
2022/05/01 03:46:23;;;;;;;0.88;0.88;;;0.20;99.90;;;;;;5038963;28;20033;-72
2022/05/01 03:48:51;;;;;;;0.90;0.90;;;0.20;99.90;;;;;;5038319;28;20103;-73
2022/05/01 03:51:18;;;;;;;0.85;0.85;;;0.20;99.90;;;;;;5037783;28;20056;-72
2022/05/01 03:53:45;;;;;;;0.93;0.93;;;0.20;99.90;;;;;;5040059;28;20037;-73
2022/05/01 03:56:11;;;;;;;0.90;0.90;;;0.20;99.90;;;;;;5037166;28;20405;-74
2022/05/01 03:58:38;;;;;;;0.95;0.95;;;0.20;99.90;;;;;;5035735;28;20083;-72
2022/05/01 04:01:04;;;;;;;0.90;0.90;;;0.30;99.90;;;;;;5034714;28;20114;-73
2022/05/01 04:03:29;;;;;;;0.70;0.70;;;0.40;99.90;;;;;;5039122;28;20112;-72
2022/05/01 04:05:55;;;;;;;0.90;0.90;;;0.40;99.90;;;;;;5036086;28;20052;-74
2022/05/01 04:08:22;;;;;;;0.90;0.90;;;0.40;99.90;;;;;;5038942;28;20052;-74
2022/05/01 04:10:47;;;;;;;0.80;0.80;;;0.40;99.90;;;;;;5036623;28;20051;-71
2022/05/01 04:13:14;;;;;;;0.90;0.90;;;0.40;99.90;;;;;;5038957;28;20044;-73
2022/05/01 04:15:41;;;;;;;1.00;1.00;;;0.40;99.90;;;;;;5038085;28;20041;-72
2022/05/01 04:18:08;;;;;;;0.82;0.82;;;0.50;99.90;;;;;;5020436;28;20267;-73
2022/05/01 04:20:37;;;;;;;0.80;0.80;;;0.50;99.90;;;;;;5039118;28;20135;-73
2022/05/01 04:23:04;;;;;;;0.70;0.70;;;0.60;99.90;;;;;;5054384;28;20060;-70
2022/05/01 04:25:33;;;;;;;0.90;0.90;;;0.70;99.90;;;;;;5036840;28;20498;-73
2022/05/01 04:28:07;;;;;;;0.75;0.75;;;0.70;99.90;;;;;;5037819;28;20440;-74
2022/05/01 04:30:34;;;;;;;0.90;0.90;;;0.90;99.90;;;;;;5036276;28;21590;-73
2022/05/01 04:33:08;;;;;;;0.80;0.80;;;0.90;99.90;;;;;;5037493;28;20658;-73
2022/05/01 04:35:40;;;;;;;0.80;0.80;;;1.00;99.90;;;;;;5021372;28;20036;-74
2022/05/01 04:38:17;;;;;;;0.93;0.93;;;1.00;99.90;;;;;;5052456;28;20048;-72
2022/05/01 04:40:46;;;;;;;0.90;0.90;;;1.20;99.90;;;;;;5036907;28;20059;-72
2022/05/01 04:43:13;;;;;;;0.80;0.80;;;1.30;99.90;;;;;;5038470;28;20582;-73
2022/05/01 04:45:40;;;;;;;0.80;0.80;;;1.40;99.90;;;;;;5038104;28;20067;-75
2022/05/01 04:48:07;;;;;;;0.70;0.70;;;1.60;99.90;;;;;;5036505;28;20047;-73
2022/05/01 04:50:33;;;;;;;0.70;0.70;;;1.50;99.90;;;;;;5036982;28;20037;-73
2022/05/01 04:53:02;;;;;;;0.77;0.77;;;1.60;99.90;;;;;;5036095;28;20045;-71
2022/05/01 04:55:31;;;;;;;0.75;0.75;;;1.70;99.90;;;;;;5020223;28;20423;-72
2022/05/01 04:57:57;;;;;;;0.80;0.80;;;1.90;99.90;;;;;;5037800;28;20092;-72
2022/05/01 05:00:23;;;;;;;0.70;0.70;;;1.90;99.90;;;;;;5037850;28;20045;-71
2022/05/01 05:02:50;;;;;;;4.57;0.98;;;2.10;99.90;;;;;;5036899;28;20037;-71
2022/05/01 05:05:17;;;;;;;0.80;0.80;;;2.20;99.90;;;;;;5038357;28;20052;-72
2022/05/01 05:07:43;;;;;;;0.73;0.73;;;2.20;99.90;;;;;;5037407;28;20041;-74
2022/05/01 05:10:10;;;;;;;0.90;0.90;;;2.40;99.90;;;;;;5020759;28;20059;-72
2022/05/01 05:12:37;;;;;;;0.75;0.75;;;2.50;99.90;;;;;;5036927;28;20956;-74
2022/05/01 05:15:07;;;;;;;1.00;1.00;;;2.60;99.90;;;;;;5035918;28;20146;-72
2022/05/01 05:17:33;;;;;;;0.70;0.70;;;2.80;99.90;;;;;;5037724;28;20063;-74
2022/05/01 05:19:59;;;;;;;;;;;2.90;99.90;;;;;;5036889;28;20048;-73
2022/05/01 05:22:25;;;;;;;0.75;0.75;;;3.00;99.90;;;;;;5036290;28;19923;-75
2022/05/01 05:24:51;;;;;;;0.60;0.60;;;3.10;99.90;;;;;;5038465;28;20041;-73
2022/05/01 05:27:21;;;;;;;0.70;0.70;;;3.20;99.90;;;;;;5038331;28;20032;-75
2022/05/01 05:29:47;;;;;;;0.70;0.70;;;3.30;99.90;;;;;;5039176;28;20057;-73
2022/05/01 05:32:13;;;;;;;1.52;1.42;;;3.30;99.90;;;;;;5036143;28;20104;-73
2022/05/01 05:34:39;;;;;;;0.80;0.80;;;3.40;99.90;;;;;;5035881;28;20139;-73
2022/05/01 05:37:06;;;;;;;0.75;0.75;;;3.50;99.90;;;;;;5021725;28;20053;-73
2022/05/01 05:39:31;;;;;;;0.70;0.70;;;3.50;99.90;;;;;;5035656;28;20041;-72
2022/05/01 05:41:57;;;;;;;0.57;0.57;;;3.60;99.90;;;;;;5002418;28;20071;-72
2022/05/01 05:44:23;;;;;;;0.63;0.63;;;3.60;99.90;;;;;;5036991;28;20437;-71
2022/05/01 05:46:49;;;;;;;0.70;0.70;;;3.70;99.90;;;;;;5038115;28;20047;-74
2022/05/01 05:49:15;;;;;;;0.70;0.70;;;3.80;99.90;;;;;;5034774;28;20073;-73
2022/05/01 05:51:40;;;;;;;0.70;0.70;;;3.90;99.90;;;;;;5020573;28;20059;-73
2022/05/01 05:54:06;;;;;;;0.73;0.73;;;4.00;99.90;;;;;;5019876;28;20072;-74
2022/05/01 05:56:32;;;;;;;1.67;1.15;;;4.20;99.90;;;;;;5040348;28;20053;-76
2022/05/01 05:58:59;;;;;;;0.60;0.60;;;4.50;99.90;;;;;;5018309;28;20052;-75
2022/05/01 06:01:24;;;;;;;;;;;4.40;99.90;;;;;;5019755;28;20040;-74
2022/05/01 06:03:50;;;;;;;1.85;1.50;;;4.60;99.90;;;;;;5038146;28;19931;-72
2022/05/01 06:06:17;;;;;;;0.75;0.75;;;4.70;99.90;;;;;;5038257;28;20040;-76
2022/05/01 06:08:44;;;;;;;1.02;1.02;;;4.80;99.90;;;;;;5036131;28;20390;-74
2022/05/01 06:11:10;;;;;;;0.60;0.60;;;5.00;99.90;;;;;;5035941;28;20068;-71
2022/05/01 06:13:36;;;;;;;;;;;5.10;99.90;;;;;;5036825;28;20037;-74
2022/05/01 06:16:02;;;;;;;0.65;0.65;;;5.20;99.90;;;;;;5035800;28;19935;-74
2022/05/01 06:18:27;;;;;;;0.55;0.55;;;5.30;99.90;;;;;;5037538;28;20059;-73
2022/05/01 06:20:53;;;;;;;0.68;0.68;;;5.40;99.90;;;;;;5036001;28;20911;-74
2022/05/01 06:23:20;;;;;;;0.70;0.70;;;5.60;99.90;;;;;;5035758;28;20072;-75
2022/05/01 06:25:46;;;;;;;0.60;0.60;;;5.70;99.90;;;;;;5037655;28;20037;-73
2022/05/01 06:28:13;;;;;;;0.63;0.63;;;5.80;99.90;;;;;;5016920;28;21842;-75
2022/05/01 06:30:41;;;;;;;0.60;0.60;;;5.90;99.90;;;;;;5037120;28;20357;-72
2022/05/01 06:33:13;;;;;;;0.70;0.70;;;6.10;99.90;;;;;;5036457;28;20047;-74
2022/05/01 06:35:39;;;;;;;0.65;0.65;;;6.20;99.90;;;;;;5052231;28;20482;-73
2022/05/01 06:38:05;;;;;;;0.60;0.60;;;6.40;99.90;;;;;;5034778;28;20083;-75
2022/05/01 06:40:31;;;;;;;0.70;0.70;;;6.60;99.90;;;;;;5036521;28;20111;-74
2022/05/01 06:42:57;;;;;;;0.50;0.50;;;6.80;99.90;;;;;;5038709;28;20470;-74
2022/05/01 06:45:22;;;;;;;0.73;0.73;;;6.30;99.90;;;;;;5035433;28;20047;-75
2022/05/01 06:47:48;;;;;;;0.50;0.50;;;7.20;99.90;;;;;;5018765;28;21672;-76
2022/05/01 06:50:14;;;;;;;0.57;0.57;;;7.50;99.90;;;;;;5035605;28;20474;-72
2022/05/01 06:52:40;;;;;;;0.68;0.68;;;7.60;99.90;;;;;;5019132;28;20094;-73
2022/05/01 06:55:06;;;;;;;0.60;0.60;;;7.80;99.90;;;;;;5018124;28;20168;-75
2022/05/01 06:57:32;;;;;;;;;;;7.90;99.90;;;;;;5035089;28;20045;-76
2022/05/01 06:59:58;;;;;;;0.47;0.47;;;8.10;99.90;;;;;;5016524;28;19968;-73
2022/05/01 07:02:23;;;;;;;0.50;0.50;;;8.30;99.90;;;;;;5037949;28;20045;-74
2022/05/01 07:04:49;;;;;;;0.60;0.60;;;8.50;99.90;;;;;;5034299;28;20509;-76
2022/05/01 07:07:15;;;;;;;0.73;0.73;;;9.00;99.90;;;;;;5034226;28;20028;-79
2022/05/01 07:09:46;;;;;;;0.35;0.35;;;8.80;99.90;;;;;;5018687;28;20064;-77
2022/05/01 07:12:12;;;;;;;0.45;0.45;;;9.00;99.90;;;;;;5034153;28;20044;-74
2022/05/01 07:14:38;;;;;;;0.55;0.55;;;9.00;99.90;;;;;;5034846;28;20114;-74
2022/05/01 07:17:04;;;;;;;0.80;0.80;;;9.00;99.90;;;;;;5037313;28;20041;-73
2022/05/01 07:19:30;;;;;;;0.95;0.95;;;9.20;99.90;;;;;;5036726;28;20565;-77
2022/05/01 07:21:55;;;;;;;1.58;1.48;;;9.30;99.90;;;;;;5015837;28;20537;-76
2022/05/01 07:24:23;;;;;;;0.75;0.75;;;9.30;99.90;;;;;;5016516;28;20049;-79
2022/05/01 07:26:50;;;;;;;0.93;0.93;;;9.50;99.90;;;;;;5021430;28;20069;-78
2022/05/01 07:29:15;;;;;;;0.95;0.95;;;9.40;99.90;;;;;;5033352;28;20122;-77
2022/05/01 07:31:42;;;;;;;0.50;0.50;;;9.40;99.90;;;;;;5033558;28;20036;-75
2022/05/01 07:34:09;;;;;;;0.60;0.60;;;9.60;99.90;;;;;;5033869;28;20493;-77
2022/05/01 07:36:35;;;;;;;0.68;0.68;;;9.60;99.90;;;;;;5037015;28;20049;-73
2022/05/01 07:39:00;;;;;;;;;;;9.40;99.90;;;;;;5034953;28;20059;-75
2022/05/01 07:41:27;;;;;;;0.90;0.90;;;9.80;99.90;;;;;;5034925;28;20828;-73
2022/05/01 07:43:55;;;;;;;;;;;9.80;99.90;;;;;;5033233;28;20455;-74
2022/05/01 07:46:21;;;;;;;0.80;0.80;;;10.00;99.90;;;;;;5034729;28;19932;-74
2022/05/01 07:48:47;;;;;;;;;;;10.10;99.90;;;;;;5017240;28;20048;-76
2022/05/01 07:51:15;;;;;;;0.60;0.60;;;10.10;99.90;;;;;;5016888;28;19920;-74
2022/05/01 07:53:41;;;;;;;0.60;0.60;;;10.20;99.90;;;;;;5033623;28;21850;-74
2022/05/01 07:56:06;;;;;;;0.65;0.65;;;10.40;99.90;;;;;;5034572;28;20090;-76
2022/05/01 07:58:32;;;;;;;0.40;0.40;;;10.60;99.90;;;;;;4999416;28;20049;-75
2022/05/01 08:00:59;;;;;;;0.45;0.45;;;10.60;99.90;;;;;;5003357;28;20423;-76
2022/05/01 08:06:11;;;;;;;0.60;0.60;;;11.00;99.90;;;;;;5019812;28;20037;-72
2022/05/01 08:08:38;;;;;;;0.60;0.60;;;11.00;99.90;;;;;;5014857;28;20073;-76
2022/05/01 08:11:04;;;;;;;0.45;0.45;;;11.00;99.90;;;;;;5032655;28;20053;-75
2022/05/01 08:13:30;;;;;;;0.52;0.52;;;10.90;99.90;;;;;;5033136;28;20509;-78
2022/05/01 08:15:56;;;;;;;0.40;0.40;;;10.90;99.90;;;;;;5021457;28;20045;-73
2022/05/01 08:21:07;;;;;;;0.32;0.32;;;11.10;99.90;;;;;;5038375;28;20049;-73
2022/05/01 08:23:35;;;;;;;0.40;0.40;;;11.30;99.90;;;;;;5027728;28;20057;-75
2022/05/01 08:26:03;;;;;;;0.63;0.63;;;11.40;99.90;;;;;;5047261;28;20112;-76
2022/05/01 08:28:40;;;;;;;0.40;0.40;;;11.80;99.90;;;;;;5034045;28;20049;-75
2022/05/01 08:31:06;;;;;;;0.68;0.68;;;12.10;99.90;;;;;;5042039;28;20521;-79
2022/05/01 08:33:33;;;;;;;0.60;0.60;;;12.00;99.90;;;;;;5052411;28;20616;-75
2022/05/01 08:36:04;;;;;;;0.45;0.45;;;;;;;;;;5043732;28;20049;-75
2022/05/01 08:38:30;;;;;;;0.63;0.63;;;12.20;99.90;;;;;;5037782;28;20043;-72
2022/05/01 08:40:56;;;;;;;;;;;12.30;99.90;;;;;;5032829;28;20133;-72
2022/05/01 08:43:23;;;;;;;0.43;0.43;;;12.40;99.90;;;;;;5048036;28;19936;-72
2022/05/01 08:46:08;;;;;;;0.95;0.77;;;12.40;99.90;;;;;;5014968;28;20061;-72
2022/05/01 08:49:06;;;;;;;1.15;0.70;;;12.40;99.90;;;;;;5051607;28;20045;-72
2022/05/01 08:51:37;;;;;;;0.43;0.43;;;12.50;99.90;;;;;;5022944;28;20052;-73
2022/05/01 08:54:07;;;;;;;0.40;0.40;;;12.70;99.90;;;;;;5045369;28;20128;-71
2022/05/01 08:56:34;;;;;;;0.30;0.30;;;12.80;99.90;;;;;;5044762;28;20079;-71
2022/05/01 08:59:05;;;;;;;0.77;0.77;;;12.80;99.90;;;;;;5043006;28;20116;-72
2022/05/01 09:01:34;;;;;;;0.80;0.80;;;13.00;99.90;;;;;;5039870;28;20072;-72
2022/05/01 09:04:01;;;;;;;0.80;0.45;;;13.10;99.90;;;;;;5035311;28;20037;-71
2022/05/01 09:06:27;;;;;;;0.40;0.40;;;13.10;99.90;;;;;;5031834;28;20071;-72
2022/05/01 09:08:53;;;;;;;0.43;0.43;;;13.10;99.90;;;;;;5033154;28;20079;-71
2022/05/01 09:14:05;;;;;;;1.67;1.05;;;13.00;99.90;;;;;;5041122;28;20041;-72
2022/05/01 09:16:32;;;;;;;0.60;0.60;;;12.90;99.90;;;;;;5041630;28;20044;-73
2022/05/01 09:18:59;;;;;;;0.40;0.40;;;12.80;99.90;;;;;;5046776;28;20061;-73
2022/05/01 09:21:25;;;;;;;0.40;0.35;;;12.80;99.90;;;;;;5033033;28;20046;-72
2022/05/01 09:23:50;;;;;;;0.50;0.50;;;12.80;99.90;;;;;;5051543;28;20041;-70
2022/05/01 09:26:18;;;;;;;0.40;0.40;;;12.50;99.90;;;;;;5050423;28;20365;-72
2022/05/01 09:28:52;;;;;;;0.40;0.40;;;12.60;99.90;;;;;;5046518;28;20051;-71
2022/05/01 09:31:45;;;;;;;0.85;0.50;;;12.60;99.90;;;;;;5039005;28;20048;-73
2022/05/01 09:34:29;;;;;;;0.85;0.85;;;12.70;99.90;;;;;;5043376;28;20076;-70
2022/05/01 09:36:57;;;;;;;0.50;0.50;;;12.90;99.90;;;;;;5045534;28;20061;-72
2022/05/01 09:39:25;;;;;;;0.30;0.30;;;13.00;99.90;;;;;;5014656;28;20060;-73
2022/05/01 09:41:53;;;;;;;0.60;0.60;;;13.00;99.90;;;;;;5046810;28;20099;-72
2022/05/01 09:44:21;;;;;;;0.40;0.40;;;13.10;99.90;;;;;;5042800;28;20045;-72
2022/05/01 09:46:48;;;;;;;0.43;0.43;;;13.10;99.90;;;;;;5031420;28;20037;-73
2022/05/01 09:49:16;;;;;;;0.40;0.40;;;13.20;99.90;;;;;;5050565;28;20045;-73
2022/05/01 09:51:52;;;;;;;0.43;0.43;;;13.20;99.90;;;;;;5031946;28;20083;-72
2022/05/01 09:54:22;;;;;;;0.70;0.70;;;13.10;99.90;;;;;;5035773;28;20474;-72
2022/05/01 09:56:54;;;;;;;0.40;0.40;;;12.90;99.90;;;;;;5044801;28;20509;-74
2022/05/01 09:59:21;;;;;;;0.40;0.40;;;13.00;99.90;;;;;;5054456;28;20041;-75
2022/05/01 10:02:26;;;;;;;0.30;0.30;;;13.40;99.90;;;;;;5047108;28;20036;-74
2022/05/01 10:04:56;;;;;;;0.30;0.30;;;13.90;99.90;;;;;;5037387;28;20137;-73
2022/05/01 10:07:25;;;;;;;0.20;0.20;;;14.20;99.90;;;;;;5046660;28;20130;-71
2022/05/01 10:09:52;;;;;;;0.50;0.50;;;14.20;99.90;;;;;;5041050;28;20052;-72
2022/05/01 10:12:19;;;;;;;0.30;0.30;;;14.30;99.90;;;;;;5030905;28;20094;-72
2022/05/01 10:14:45;;;;;;;0.40;0.40;;;14.10;99.90;;;;;;5025587;28;20050;-73
2022/05/01 10:17:11;;;;;;;0.50;0.50;;;14.10;99.90;;;;;;5029330;28;20134;-72
2022/05/01 10:19:38;;;;;;;0.30;0.30;;;14.30;99.90;;;;;;5033177;28;20084;-72
2022/05/01 10:22:05;;;;;;;0.90;0.80;;;14.60;99.90;;;;;;5046177;28;20449;-75
2022/05/01 10:24:33;;;;;;;2.65;1.98;;;14.70;99.90;;;;;;5035532;28;20164;-74
2022/05/01 10:27:21;;;;;;;0.50;0.50;;;14.50;99.90;;;;;;5042297;28;20131;-75
2022/05/01 10:33:27;;;;;;;0.65;0.65;;;14.20;99.90;;;;;;5039885;28;20049;-76
2022/05/01 10:36:14;;;;;;;0.60;0.60;;;14.20;99.90;;;;;;5041266;28;20091;-72
2022/05/01 10:38:42;;;;;;;;;;;13.40;99.60;;;;;;5041828;28;20049;-76
2022/05/01 10:41:11;;;;;;;0.77;0.77;;;14.00;99.70;;;;;;5048463;28;19986;-74
2022/05/01 10:43:37;;;;;;;0.30;0.30;;;13.90;99.60;;;;;;5043465;28;20041;-76
2022/05/01 10:46:21;;;;;;;0.30;0.30;;;14.00;98.40;;;;;;5024208;28;20037;-76
2022/05/01 10:48:48;;;;;;;0.40;0.40;;;14.00;96.80;;;;;;5039962;28;20136;-75
2022/05/01 10:51:30;;;;;;;0.40;0.40;;;14.10;97.10;;;;;;5032062;28;20049;-76
2022/05/01 10:54:10;;;;;;;0.70;0.55;;;14.20;96.50;;;;;;5040035;28;20049;-75
2022/05/01 10:56:37;;;;;;;0.32;0.32;;;14.10;96.00;;;;;;5048421;28;20045;-73
2022/05/01 10:59:32;;;;;;;0.68;0.68;;;14.00;94.50;;;;;;5039170;28;20041;-71
2022/05/01 11:02:00;;;;;;;0.47;0.47;;;14.10;96.60;;;;;;5045070;28;20082;-72
2022/05/01 11:04:40;;;;;;;0.40;0.40;;;14.40;95.00;;;;;;5049170;28;20463;-71
2022/05/01 11:07:10;;;;;;;0.65;0.65;;;14.50;94.20;;;;;;5027868;28;20833;-72
2022/05/01 11:09:36;;;;;;;0.77;0.77;;;14.80;93.40;;;;;;5039647;28;20727;-70
2022/05/01 11:12:04;;;;;;;0.30;0.30;;;15.10;94.10;;;;;;5048200;28;20144;-73
2022/05/01 11:14:35;;;;;;;0.40;0.40;;;15.50;90.80;;;;;;5048773;28;20048;-72
2022/05/01 11:17:02;;;;;;;1.60;0.60;;;15.90;93.00;;;;;;5037510;28;20045;-72
2022/05/01 11:19:45;;;;;;;0.35;0.35;;;15.80;95.40;;;;;;5047660;28;20571;-70
2022/05/01 11:22:14;;;;;;;0.85;0.85;;;15.60;93.70;;;;;;5048799;28;20044;-71
2022/05/01 11:24:44;;;;;;;0.50;0.50;;;15.40;94.10;;;;;;5045854;28;20044;-72
2022/05/01 11:27:10;;;;;;;0.68;0.68;;;15.30;93.40;;;;;;5049981;28;20155;-70
2022/05/01 11:29:36;;;;;;;;;;;15.20;93.40;;;;;;5057764;28;20474;-72
2022/05/01 11:32:18;;;;;;;0.47;0.47;;;15.10;93.70;;;;;;5046796;28;19917;-72
2022/05/01 11:34:50;;;;;;;0.50;0.50;;;15.10;93.60;;;;;;5045432;28;20041;-73
2022/05/01 11:37:15;;;;;;;0.70;0.70;;;15.10;95.50;;;;;;5047601;28;20041;-72
2022/05/01 11:39:50;;;;;;;0.50;0.50;;;15.10;92.10;;;;;;5048719;28;20489;-71
2022/05/01 11:42:24;;;;;;;1.08;0.50;;;15.10;94.90;;;;;;5019184;28;20470;-72
2022/05/01 11:44:56;;;;;;;0.40;0.40;;;14.90;91.70;;;;;;5047705;28;21961;-74
2022/05/01 11:47:33;;;;;;;0.30;0.30;;;14.90;94.40;;;;;;5047345;28;20112;-72
2022/05/01 11:49:59;;;;;;;0.40;0.38;;;14.80;93.90;;;;;;5046779;28;20076;-71
2022/05/01 11:52:24;;;;;;;;;;;14.80;95.10;;;;;;5046647;28;20040;-70
2022/05/01 11:54:56;;;;;;;0.73;0.70;;;14.70;92.70;;;;;;5050764;28;20061;-71
2022/05/01 12:03:01;;;;;;;0.57;0.57;;;14.80;94.30;;;;;;5051769;28;20056;-74
2022/05/01 12:05:40;;;;;;;0.40;0.40;;;14.60;94.40;;;;;;5046102;28;20025;-73
2022/05/01 12:08:06;;;;;;;0.57;0.57;;;14.50;94.80;;;;;;5043469;28;20155;-71
2022/05/01 12:10:31;;;;;;;0.40;0.40;;;14.40;93.50;;;;;;5051282;28;20460;-72
2022/05/01 12:12:57;;;;;;;0.30;0.30;;;14.30;94.80;;;;;;5049745;28;20045;-71
2022/05/01 12:15:24;;;;;;;;;;;14.40;95.90;;;;;;5051051;28;20045;-72
2022/05/01 12:17:51;;;;;;;0.40;0.40;;;14.40;95.70;;;;;;5052736;28;19925;-72
2022/05/01 12:20:18;;;;;;;0.30;0.30;;;14.30;95.50;;;;;;5051710;28;20056;-72
2022/05/01 12:22:43;;;;;;;0.70;0.70;;;14.30;96.20;;;;;;5044153;28;20108;-71
2022/05/01 12:25:11;;;;;;;0.50;0.43;;;14.40;96.90;;;;;;5045911;28;20486;-73
2022/05/01 12:27:41;;;;;;;0.73;0.73;;;14.40;96.40;;;;;;5048442;28;20474;-71
2022/05/01 12:30:08;;;;;;;0.25;0.25;;;14.40;96.90;;;;;;5052735;28;20344;-73
2022/05/01 12:32:35;;;;;;;0.30;0.30;;;14.30;98.20;;;;;;5043730;28;20098;-72
2022/05/01 12:35:03;;;;;;;0.35;0.35;;;14.20;97.50;;;;;;5038848;28;20124;-72
2022/05/01 12:37:48;;;;;;;0.35;0.35;;;14.20;97.00;;;;;;5050336;28;20045;-70
2022/05/01 12:43:50;;;;;;;0.30;0.30;;;14.20;98.10;;;;;;5052242;28;20041;-72
2022/05/01 12:45:53;;;;;;;0.52;0.52;;;15.00;98.60;;;;;;5052700;28;20100;-72
2022/05/01 12:48:19;;;;;;;0.40;0.40;;;15.80;96.50;;;;;;5051798;28;20120;-72
2022/05/01 12:50:51;;;;;;;0.60;0.60;;;16.00;93.80;;;;;;5049513;28;20049;-71
2022/05/01 12:53:21;;;;;;;0.40;0.40;;;15.90;92.80;;;;;;5053113;28;20408;-72
2022/05/01 12:55:47;;;;;;;0.40;0.40;;;15.70;90.70;;;;;;5050734;28;20470;-72
2022/05/01 12:58:12;;;;;;;;;;;15.70;91.20;;;;;;5053087;28;20037;-72
2022/05/01 13:00:43;;;;;;;0.30;0.30;;;16.00;92.60;;;;;;5050606;28;19924;-73
2022/05/01 13:03:23;;;;;;;0.30;0.30;;;16.30;94.20;;;;;;5034858;28;20049;-71
2022/05/01 13:06:04;;;;;;;0.63;0.63;;;16.50;91.00;;;;;;5050258;28;20045;-72
2022/05/01 13:08:54;;;;;;;0.30;0.30;;;16.40;91.70;;;;;;5050991;28;20029;-73
2022/05/01 13:11:21;;;;;;;0.30;0.30;;;16.30;91.60;;;;;;5040494;28;20049;-73
2022/05/01 13:14:07;;;;;;;0.30;0.30;;;16.50;98.50;;;;;;5046995;28;20440;-73
2022/05/01 13:16:33;;;;;;;0.40;0.40;;;16.70;94.40;;;;;;5050265;28;20041;-74
2022/05/01 13:19:00;;;;;;;;;;;16.90;91.90;;;;;;5049637;28;20094;-74
2022/05/01 13:21:29;;;;;;;0.35;0.35;;;17.20;93.30;;;;;;5053392;28;19917;-72
2022/05/01 13:24:03;;;;;;;0.30;0.30;;;17.60;90.60;;;;;;5049121;28;20049;-72
2022/05/01 13:26:29;;;;;;;0.30;0.30;;;18.10;85.30;;;;;;5025599;28;20044;-72
2022/05/01 13:28:55;;;;;;;0.30;0.30;;;18.80;78.80;;;;;;5048100;28;20033;-71
2022/05/01 13:31:21;;;;;;;0.13;0.13;;;19.10;85.60;;;;;;5046471;28;20087;-74
2022/05/01 13:33:47;;;;;;;0.13;0.13;;;19.10;77.00;;;;;;5047973;28;20044;-71
2022/05/01 13:36:16;;;;;;;0.20;0.20;;;18.90;75.50;;;;;;5047062;28;20116;-71